Aviation Digital Data Service (ADDS)

Output produced by METARs form (0120 UTC 17 July 2019)
found at http://www.aviationweather.gov/metar/data/
 
TAF HADR 162130Z 1700/1806 18010KT 9999 SCT035 SCT080
       
HAAB 170100Z 31004KT 5000 9999 SCT025 BKN070 13/11 Q1026
TAF HAAB 162130Z 1700/1806 21005KT 8000M BKN030 SCT080 BECMEG 1710/1713 7000
TSRA BECMEG 1717/1719 00004KT 
     TEMPO 1805/1806 27005 TSRA